createdAt,value
2022-10-14T00:02:28.955Z,42.16
2022-10-14T00:04:59.333Z,42.62
2022-10-14T00:07:31.692Z,42.07
2022-10-14T00:10:02.196Z,42.12
2022-10-14T00:12:32.633Z,42.58
2022-10-14T00:15:02.920Z,42.62
2022-10-14T00:17:33.279Z,42.66
2022-10-14T00:20:04.036Z,42.23
2022-10-14T00:22:35.861Z,42.12
2022-10-14T00:25:07.006Z,42.32
2022-10-14T00:27:37.036Z,42.54
2022-10-14T00:30:08.586Z,42.69
2022-10-14T00:32:39.016Z,42.31
2022-10-14T00:35:10.389Z,42.24
2022-10-14T00:37:42.010Z,42.43
2022-10-14T00:40:14.218Z,42.57
2022-10-14T00:42:44.025Z,42.54
2022-10-14T00:45:27.138Z,42.57
2022-10-14T00:47:57.536Z,42.47
2022-10-14T00:50:28.551Z,42.74
2022-10-14T00:53:01.511Z,42.43
2022-10-14T00:55:32.116Z,42.63
2022-10-14T00:58:03.287Z,42.38
2022-10-14T01:00:34.178Z,42.85
2022-10-14T01:03:10.611Z,42.75
2022-10-14T01:05:52.055Z,42.43
2022-10-14T01:08:32.752Z,42.21
2022-10-14T01:11:12.531Z,42.95
2022-10-14T01:13:52.700Z,42.21
2022-10-14T01:16:33.960Z,43.06
2022-10-14T01:19:42.211Z,42.68
2022-10-14T01:22:23.565Z,42.54
2022-10-14T01:25:16.746Z,42.67
2022-10-14T01:28:15.318Z,42.57
2022-10-14T01:30:50.648Z,43.03
2022-10-14T01:33:27.232Z,42.60
2022-10-14T01:36:10.927Z,42.51
2022-10-14T01:38:47.101Z,42.78
2022-10-14T01:41:24.621Z,42.55
2022-10-14T01:44:00.303Z,42.80
2022-10-14T01:46:35.146Z,42.46
2022-10-14T01:49:13.048Z,42.50
2022-10-14T01:51:50.838Z,42.79
2022-10-14T01:54:35.326Z,42.94
2022-10-14T01:57:12.119Z,42.46
2022-10-14T01:59:44.960Z,42.53
2022-10-14T02:02:17.702Z,42.97
2022-10-14T02:04:48.018Z,42.59
2022-10-14T02:07:26.996Z,42.94
2022-10-14T02:10:10.427Z,42.86
2022-10-14T02:12:53.439Z,42.92
2022-10-14T02:15:34.338Z,42.73
2022-10-14T02:18:18.079Z,42.62
2022-10-14T02:20:58.068Z,42.92
2022-10-14T02:23:33.452Z,42.64
2022-10-14T02:26:06.564Z,42.75
2022-10-14T02:28:38.269Z,42.91
2022-10-14T02:31:14.893Z,43.11
2022-10-14T02:33:52.316Z,42.58
2022-10-14T02:36:29.018Z,42.97
2022-10-14T02:39:03.193Z,42.88
2022-10-14T02:41:39.933Z,42.71
2022-10-14T02:44:10.606Z,43.29
2022-10-14T02:46:43.774Z,42.87
2022-10-14T02:49:15.765Z,42.97
2022-10-14T02:51:46.277Z,42.90
2022-10-14T02:54:17.281Z,43.04
2022-10-14T02:56:47.316Z,42.94
2022-10-14T02:59:17.642Z,42.67
2022-10-14T03:01:48.060Z,42.94
2022-10-14T03:04:20.359Z,43.14
2022-10-14T03:06:50.461Z,43.20
2022-10-14T03:09:20.909Z,42.72
2022-10-14T03:11:51.219Z,42.77
2022-10-14T03:14:21.354Z,42.98
2022-10-14T03:16:51.457Z,43.06
2022-10-14T03:19:23.365Z,42.78
2022-10-14T03:21:53.199Z,43.08
2022-10-14T03:24:23.541Z,42.99
2022-10-14T03:26:54.122Z,43.06
2022-10-14T03:29:24.482Z,43.04
2022-10-14T03:31:54.992Z,43.02
2022-10-14T03:34:26.849Z,43.06
2022-10-14T03:36:57.004Z,43.05
2022-10-14T03:39:27.450Z,43.22
2022-10-14T03:41:57.855Z,43.36
2022-10-14T03:44:27.738Z,42.81
2022-10-14T03:46:57.980Z,43.11
2022-10-14T03:49:30.205Z,43.19
2022-10-14T03:52:00.563Z,43.10
2022-10-14T03:54:31.041Z,43.34
2022-10-14T03:57:01.195Z,43.27
2022-10-14T03:59:31.412Z,43.21
2022-10-14T04:02:01.574Z,43.42
2022-10-14T04:04:34.047Z,43.71
2022-10-14T04:07:04.255Z,43.55
2022-10-14T04:09:43.698Z,43.40
2022-10-14T04:12:14.002Z,43.18
2022-10-14T04:14:44.461Z,43.47
2022-10-14T04:17:14.989Z,43.17
2022-10-14T04:19:47.246Z,43.56
2022-10-14T04:22:17.368Z,43.32
2022-10-14T04:24:47.236Z,43.54
2022-10-14T04:27:17.256Z,43.44
2022-10-14T04:29:47.783Z,43.44
2022-10-14T04:32:17.828Z,43.77
2022-10-14T04:34:54.076Z,43.53
2022-10-14T04:37:24.250Z,43.96
2022-10-14T04:39:54.438Z,43.70
2022-10-14T04:42:24.939Z,43.85
2022-10-14T04:44:55.524Z,44.00
2022-10-14T04:47:26.468Z,43.95
2022-10-14T04:49:59.035Z,44.11
2022-10-14T04:52:28.876Z,43.71
2022-10-14T04:55:01.732Z,43.91
2022-10-14T04:57:32.195Z,44.15
2022-10-14T05:00:02.732Z,43.79
2022-10-14T05:02:33.234Z,44.10
2022-10-14T05:05:06.102Z,43.89
2022-10-14T05:07:37.398Z,44.04
2022-10-14T05:10:10.210Z,43.88
2022-10-14T05:12:41.600Z,43.72
2022-10-14T05:15:13.178Z,43.87
2022-10-14T05:17:45.437Z,43.29
2022-10-14T05:20:17.911Z,43.15
2022-10-14T05:22:48.605Z,43.94
2022-10-14T05:25:18.752Z,43.42
2022-10-14T05:27:49.371Z,44.03
2022-10-14T05:30:20.730Z,43.91
2022-10-14T05:32:51.225Z,44.17
2022-10-14T05:35:46.377Z,43.51
2022-10-14T05:38:15.022Z,43.45
2022-10-14T05:40:45.561Z,43.56
2022-10-14T05:43:16.106Z,43.19
2022-10-14T05:45:46.498Z,43.14
2022-10-14T05:48:16.997Z,43.25
2022-10-14T05:50:49.308Z,42.89
2022-10-14T05:53:19.887Z,43.48
2022-10-14T05:55:50.673Z,43.02
2022-10-14T05:58:21.036Z,43.35
2022-10-14T06:00:51.403Z,42.83
2022-10-14T06:03:21.954Z,43.27
2022-10-14T06:05:53.790Z,43.26
2022-10-14T06:08:24.470Z,43.50
2022-10-14T06:10:55.047Z,43.57
2022-10-14T06:13:25.579Z,43.59
2022-10-14T06:15:56.554Z,43.72
2022-10-14T06:18:26.496Z,43.52
2022-10-14T06:20:58.754Z,43.52
2022-10-14T06:23:30.231Z,43.24
2022-10-14T06:26:00.737Z,42.97
2022-10-14T06:28:31.792Z,43.26
2022-10-14T06:31:02.128Z,43.17
2022-10-14T06:33:32.688Z,43.06
2022-10-14T06:36:05.945Z,43.30
2022-10-14T06:38:36.507Z,43.74
2022-10-14T06:41:07.286Z,43.28
2022-10-14T06:43:37.763Z,43.55
2022-10-14T06:46:09.444Z,42.97
2022-10-14T06:48:40.070Z,42.85
2022-10-14T06:51:13.102Z,43.41
2022-10-14T06:53:44.778Z,43.65
2022-10-14T06:56:15.345Z,42.93
2022-10-14T06:58:45.699Z,42.87
2022-10-14T07:01:16.301Z,43.24
2022-10-14T07:03:46.819Z,42.61
2022-10-14T07:06:19.671Z,42.85
2022-10-14T07:08:50.021Z,42.59
2022-10-14T07:11:20.453Z,42.52
2022-10-14T07:13:50.669Z,42.49
2022-10-14T07:16:21.118Z,42.53
2022-10-14T07:18:51.526Z,42.74
2022-10-14T07:21:24.111Z,42.74
2022-10-14T07:23:56.099Z,42.23
2022-10-14T07:26:26.576Z,42.15
2022-10-14T07:28:57.242Z,42.67
2022-10-14T07:31:28.101Z,42.21
2022-10-14T07:33:58.538Z,42.11
2022-10-14T07:36:31.634Z,41.96
2022-10-14T07:39:01.697Z,42.18
2022-10-14T07:41:32.281Z,41.88
2022-10-14T07:44:06.976Z,42.32
2022-10-14T07:46:41.744Z,42.02
2022-10-14T07:49:16.572Z,41.64
2022-10-14T07:51:50.312Z,41.85
2022-10-14T07:54:24.190Z,41.59
2022-10-14T07:56:55.520Z,41.66
2022-10-14T07:59:26.264Z,41.02
2022-10-14T08:01:57.570Z,40.85
2022-10-14T08:04:28.173Z,40.65
2022-10-14T08:07:00.370Z,40.84
2022-10-14T08:09:30.778Z,40.65
2022-10-14T08:12:00.688Z,40.61
2022-10-14T08:14:31.145Z,41.02
2022-10-14T08:17:01.850Z,41.16
2022-10-14T08:19:32.661Z,40.36
2022-10-14T08:22:05.199Z,40.19
2022-10-14T08:24:35.674Z,40.22
2022-10-14T08:27:07.527Z,40.20
2022-10-14T08:29:38.121Z,40.51
2022-10-14T08:32:10.055Z,39.98
2022-10-14T08:34:41.042Z,39.86
2022-10-14T08:37:14.355Z,39.79
2022-10-14T08:39:44.840Z,39.53
2022-10-14T08:42:44.551Z,40.10
2022-10-14T08:45:26.483Z,39.23
2022-10-14T08:48:02.745Z,39.25
2022-10-14T08:50:41.529Z,39.08
2022-10-14T08:53:21.605Z,39.60
2022-10-14T08:55:57.083Z,39.28
2022-10-14T08:58:34.477Z,39.23
2022-10-14T09:01:13.901Z,39.38
2022-10-14T09:03:45.448Z,39.10
2022-10-14T09:06:27.296Z,39.28
2022-10-14T09:09:07.682Z,39.21
2022-10-14T09:11:46.226Z,38.85
2022-10-14T09:14:23.025Z,38.85
2022-10-14T09:16:59.386Z,39.12
2022-10-14T09:19:36.947Z,38.48
2022-10-14T09:22:15.685Z,38.50
2022-10-14T09:24:48.892Z,38.41
2022-10-14T09:27:22.668Z,38.60
2022-10-14T09:29:57.930Z,38.46
2022-10-14T09:32:34.917Z,38.61
2022-10-14T09:35:07.272Z,38.10
2022-10-14T09:37:40.102Z,38.19
2022-10-14T09:40:22.764Z,38.23
2022-10-14T09:43:00.104Z,37.85
2022-10-14T09:45:49.532Z,37.79
2022-10-14T09:48:26.919Z,37.82
2022-10-14T09:51:00.347Z,38.23
2022-10-14T09:53:35.103Z,38.14
2022-10-14T09:56:10.645Z,37.59
2022-10-14T09:58:47.851Z,37.66
2022-10-14T10:01:23.901Z,37.72
2022-10-14T10:03:56.583Z,37.80
2022-10-14T10:06:29.800Z,37.55
2022-10-14T10:09:03.088Z,38.24
2022-10-14T10:11:38.293Z,37.78
2022-10-14T10:14:24.526Z,37.79
2022-10-14T10:17:15.353Z,37.83
2022-10-14T10:19:48.730Z,38.18
2022-10-14T10:22:27.101Z,38.47
2022-10-14T10:25:26.649Z,37.84
2022-10-14T10:28:02.711Z,37.88
2022-10-14T10:30:41.026Z,37.68
2022-10-14T10:33:35.104Z,37.82
2022-10-14T10:36:24.774Z,37.89
2022-10-14T10:39:06.232Z,37.81
2022-10-14T10:42:01.502Z,37.72
2022-10-14T10:45:10.057Z,37.96
2022-10-14T10:47:53.054Z,38.43
2022-10-14T10:50:40.843Z,37.83
2022-10-14T10:53:36.395Z,37.90
2022-10-14T10:56:25.266Z,38.55
2022-10-14T10:59:36.807Z,38.05
2022-10-14T11:02:58.010Z,38.05
2022-10-14T11:05:57.054Z,38.07
2022-10-14T11:09:19.967Z,38.64
2022-10-14T11:12:10.924Z,38.25
2022-10-14T11:15:21.094Z,38.24
2022-10-14T11:18:01.659Z,38.61
2022-10-14T11:20:49.039Z,38.02
2022-10-14T11:23:46.145Z,37.91
2022-10-14T11:26:51.004Z,38.78
2022-10-14T11:30:17.036Z,38.02
2022-10-14T11:33:19.141Z,38.12
2022-10-14T11:36:06.687Z,38.61
2022-10-14T11:39:02.637Z,38.55
2022-10-14T11:41:53.888Z,38.61
2022-10-14T11:47:22.251Z,38.68
2022-10-14T11:50:04.422Z,38.61
2022-10-14T11:52:43.561Z,38.75
2022-10-14T11:55:21.619Z,38.00
2022-10-14T11:57:58.496Z,38.79
2022-10-14T12:00:54.014Z,38.29
2022-10-14T12:03:41.030Z,38.53
2022-10-14T12:06:21.810Z,38.91
2022-10-14T12:08:58.478Z,38.86
2022-10-14T12:11:37.780Z,38.33
2022-10-14T12:14:16.398Z,38.76
2022-10-14T12:16:50.273Z,38.64
2022-10-14T12:19:27.770Z,39.01
2022-10-14T12:22:11.837Z,38.28
2022-10-14T12:24:48.230Z,38.34
2022-10-14T12:27:21.846Z,38.56
2022-10-14T12:29:55.686Z,39.05
2022-10-14T12:32:28.247Z,38.50
2022-10-14T12:35:01.687Z,38.39
2022-10-14T12:38:06.241Z,38.40
2022-10-14T12:40:37.121Z,38.97
2022-10-14T12:43:30.195Z,38.93
2022-10-14T12:46:15.940Z,38.95
2022-10-14T12:48:55.392Z,39.02
2022-10-14T12:51:27.816Z,38.76
2022-10-14T12:54:14.028Z,38.68
2022-10-14T12:56:58.018Z,38.60
2022-10-14T12:59:34.958Z,39.12
2022-10-14T13:02:21.166Z,38.65
2022-10-14T13:04:54.200Z,39.19
2022-10-14T13:07:44.674Z,39.18
2022-10-14T13:11:11.616Z,38.59
2022-10-14T13:14:22.234Z,38.72
2022-10-14T13:17:01.716Z,38.78
2022-10-14T13:19:47.422Z,39.33
2022-10-14T13:22:42.238Z,38.84
2022-10-14T13:25:34.481Z,38.73
2022-10-14T13:28:29.198Z,39.29
2022-10-14T13:33:48.940Z,38.81
2022-10-14T13:36:26.453Z,38.74
2022-10-14T13:39:04.463Z,39.21
2022-10-14T13:41:35.256Z,39.04
2022-10-14T13:44:07.896Z,39.20
2022-10-14T13:46:44.154Z,39.01
2022-10-14T13:49:20.809Z,38.46
2022-10-14T13:51:55.911Z,39.01
2022-10-14T13:54:30.930Z,38.48
2022-10-14T14:00:39.653Z,39.15
2022-10-14T14:02:59.732Z,39.10
2022-10-14T14:05:39.620Z,38.83
2022-10-14T14:11:17.403Z,39.19
2022-10-14T14:14:01.213Z,39.18
2022-10-14T14:16:43.346Z,39.03
2022-10-14T14:19:22.679Z,38.67
2022-10-14T14:21:52.655Z,38.77
2022-10-14T14:24:30.019Z,38.91
2022-10-14T14:26:59.886Z,39.16
2022-10-14T14:29:34.114Z,39.40
2022-10-14T14:32:08.609Z,39.17
2022-10-14T14:34:42.686Z,39.18
2022-10-14T14:37:43.771Z,39.27
2022-10-14T14:40:21.885Z,38.65
2022-10-14T14:42:56.459Z,38.93
2022-10-14T14:45:31.706Z,38.81
2022-10-14T14:48:11.904Z,39.04
2022-10-14T14:50:46.767Z,39.32
2022-10-14T14:53:22.423Z,39.00
2022-10-14T14:56:13.551Z,38.81
2022-10-14T14:58:51.262Z,39.02
2022-10-14T15:01:25.260Z,38.99
2022-10-14T15:04:13.244Z,38.91
2022-10-14T15:06:51.328Z,39.03
2022-10-14T15:09:33.843Z,39.30
2022-10-14T15:12:08.608Z,38.85
2022-10-14T15:14:49.170Z,39.21
2022-10-14T15:17:34.830Z,39.35
2022-10-14T15:20:33.211Z,39.37
2022-10-14T15:23:03.826Z,39.17
2022-10-14T15:25:36.033Z,39.50
2022-10-14T15:28:07.626Z,38.92
2022-10-14T15:30:54.185Z,39.05
2022-10-14T15:33:27.463Z,39.66
2022-10-14T15:36:04.149Z,39.37
2022-10-14T15:38:34.934Z,39.69
2022-10-14T15:41:08.334Z,39.79
2022-10-14T15:43:40.389Z,39.69
2022-10-14T15:46:33.080Z,39.39
2022-10-14T15:49:07.681Z,39.46
2022-10-14T15:51:39.590Z,39.50
2022-10-14T15:54:13.171Z,39.26
2022-10-14T15:56:44.120Z,39.63
2022-10-14T15:59:16.572Z,39.55
2022-10-14T16:01:48.097Z,39.39
2022-10-14T16:04:24.608Z,39.41
2022-10-14T16:06:58.990Z,39.65
2022-10-14T16:09:29.395Z,39.34
2022-10-14T16:11:59.718Z,39.64
2022-10-14T16:14:30.474Z,39.76
2022-10-14T16:17:03.392Z,39.74
2022-10-14T16:19:33.892Z,39.31
2022-10-14T16:22:05.756Z,39.22
2022-10-14T16:24:36.792Z,39.60
2022-10-14T16:27:07.073Z,39.58
2022-10-14T16:29:38.401Z,39.44
2022-10-14T16:32:13.896Z,39.63
2022-10-14T16:34:45.297Z,39.29
2022-10-14T16:37:18.686Z,39.75
2022-10-14T16:39:49.794Z,39.77
2022-10-14T16:42:20.333Z,39.30
2022-10-14T16:44:51.077Z,39.69
2022-10-14T16:47:22.606Z,39.89
2022-10-14T16:49:55.085Z,39.40
2022-10-14T16:52:27.934Z,39.83
2022-10-14T16:54:57.920Z,39.36
2022-10-14T16:57:28.452Z,39.68
2022-10-14T16:59:59.920Z,39.83
2022-10-14T17:02:32.220Z,39.48
2022-10-14T17:05:02.945Z,39.83
2022-10-14T17:07:36.113Z,39.57
2022-10-14T17:10:07.661Z,40.02
2022-10-14T17:12:37.924Z,40.20
2022-10-14T17:15:09.702Z,39.83
2022-10-14T17:17:41.058Z,40.19
2022-10-14T17:20:12.747Z,40.00
2022-10-14T17:22:45.493Z,40.36
2022-10-14T17:25:16.691Z,40.30
2022-10-14T17:27:47.157Z,39.67
2022-10-14T17:30:17.560Z,39.76
2022-10-14T17:32:48.009Z,39.91
2022-10-14T17:35:17.966Z,39.92
2022-10-14T17:37:50.557Z,40.40
2022-10-14T17:40:20.893Z,40.00
2022-10-14T17:42:51.387Z,40.26
2022-10-14T17:45:21.871Z,40.19
2022-10-14T17:47:52.219Z,40.01
2022-10-14T17:50:23.447Z,39.98
2022-10-14T17:52:59.230Z,40.35
2022-10-14T17:55:30.189Z,39.90
2022-10-14T17:58:00.296Z,40.13
2022-10-14T18:00:30.597Z,40.65
2022-10-14T18:03:00.824Z,40.41
2022-10-14T18:05:31.914Z,40.12
2022-10-14T18:08:04.570Z,40.04
2022-10-14T18:10:36.687Z,40.25
2022-10-14T18:13:07.514Z,40.44
2022-10-14T18:15:37.578Z,40.63
2022-10-14T18:18:08.807Z,40.39
2022-10-14T18:20:40.104Z,40.32
2022-10-14T18:23:13.949Z,40.72
2022-10-14T18:25:44.342Z,40.74
2022-10-14T18:28:15.138Z,40.80
2022-10-14T18:30:46.076Z,40.51
2022-10-14T18:33:15.876Z,40.26
2022-10-14T18:35:48.740Z,40.12
2022-10-14T18:38:20.879Z,40.70
2022-10-14T18:43:34.815Z,40.34
2022-10-14T18:46:10.699Z,40.85
2022-10-14T18:48:40.966Z,40.32
2022-10-14T18:51:13.482Z,40.70
2022-10-14T18:53:47.421Z,40.18
2022-10-14T18:56:21.133Z,40.53
2022-10-14T18:58:56.691Z,40.26
2022-10-14T19:01:28.686Z,40.88
2022-10-14T19:03:59.964Z,40.34
2022-10-14T19:06:30.883Z,40.17
2022-10-14T19:09:04.158Z,40.29
2022-10-14T19:11:36.928Z,40.29
2022-10-14T19:14:08.402Z,40.19
2022-10-14T19:16:41.646Z,40.57
2022-10-14T19:19:18.757Z,40.75
2022-10-14T19:21:54.809Z,40.63
2022-10-14T19:24:26.685Z,40.13
2022-10-14T19:26:57.520Z,40.68
2022-10-14T19:29:27.872Z,40.86
2022-10-14T19:31:58.378Z,40.71
2022-10-14T19:34:29.833Z,40.21
2022-10-14T19:37:00.654Z,40.79
2022-10-14T19:39:35.035Z,40.14
2022-10-14T19:42:05.727Z,40.80
2022-10-14T19:44:36.141Z,40.78
2022-10-14T19:47:06.910Z,40.68
2022-10-14T19:49:37.337Z,40.45
2022-10-14T19:52:08.344Z,40.54
2022-10-14T19:54:40.435Z,40.87
2022-10-14T19:57:10.390Z,40.34
2022-10-14T19:59:40.292Z,40.34
2022-10-14T20:02:13.598Z,40.76
2022-10-14T20:04:44.631Z,40.49
2022-10-14T20:07:15.552Z,40.27
2022-10-14T20:09:48.080Z,40.36
2022-10-14T20:12:17.871Z,40.33
2022-10-14T20:14:48.498Z,40.76
2022-10-14T20:19:49.540Z,40.62
2022-10-14T20:22:20.041Z,40.65
2022-10-14T20:24:52.493Z,40.54
2022-10-14T20:27:22.537Z,40.87
2022-10-14T20:29:53.144Z,40.59
2022-10-14T20:32:23.482Z,40.34
2022-10-14T20:34:54.899Z,40.85
2022-10-14T20:37:28.067Z,40.29
2022-10-14T20:40:01.086Z,40.38
2022-10-14T20:42:30.953Z,40.58
2022-10-14T20:45:01.394Z,40.57
2022-10-14T20:47:31.807Z,40.38
2022-10-14T20:50:02.341Z,40.60
2022-10-14T20:52:32.261Z,40.93
2022-10-14T20:55:04.614Z,40.29
2022-10-14T20:57:35.259Z,40.78
2022-10-14T21:00:06.936Z,40.78
2022-10-14T21:02:37.515Z,40.50
2022-10-14T21:05:10.342Z,40.76
2022-10-14T21:07:40.562Z,40.78
2022-10-14T21:10:14.209Z,40.21
2022-10-14T21:12:48.020Z,40.47
2022-10-14T21:15:18.902Z,40.79
2022-10-14T21:17:52.614Z,40.61
2022-10-14T21:20:24.851Z,40.78
2022-10-14T21:22:55.640Z,40.86
2022-10-14T21:25:28.771Z,40.62
2022-10-14T21:27:59.199Z,40.46
2022-10-14T21:30:29.215Z,40.62
2022-10-14T21:32:59.908Z,40.55
2022-10-14T21:35:30.251Z,40.33
2022-10-14T21:38:00.853Z,40.53
2022-10-14T21:40:32.794Z,41.05
2022-10-14T21:43:03.239Z,40.59
2022-10-14T21:45:33.419Z,40.92
2022-10-14T21:48:03.917Z,40.90
2022-10-14T21:50:34.490Z,40.30
2022-10-14T21:53:04.479Z,40.47
2022-10-14T21:55:36.910Z,40.39
2022-10-14T21:58:07.436Z,40.45
2022-10-14T22:00:37.597Z,40.63
2022-10-14T22:03:08.059Z,40.41
2022-10-14T22:05:39.180Z,40.80
2022-10-14T22:08:09.864Z,40.62
2022-10-14T22:10:46.506Z,40.57
2022-10-14T22:13:16.373Z,40.70
2022-10-14T22:15:46.165Z,40.53
2022-10-14T22:18:16.272Z,40.52
2022-10-14T22:20:46.870Z,40.86
2022-10-14T22:23:17.634Z,40.42
2022-10-14T22:25:49.585Z,40.41
2022-10-14T22:28:20.134Z,40.77
2022-10-14T22:30:50.604Z,40.66
2022-10-14T22:33:20.576Z,41.04
2022-10-14T22:35:51.530Z,40.98
2022-10-14T22:38:21.893Z,40.73
2022-10-14T22:40:53.524Z,41.18
2022-10-14T22:43:23.482Z,40.90
2022-10-14T22:46:02.735Z,40.71
2022-10-14T22:48:34.275Z,40.97
2022-10-14T22:51:09.374Z,41.05
2022-10-14T22:53:40.481Z,40.99
2022-10-14T22:56:15.283Z,40.70
2022-10-14T22:58:47.121Z,40.97
2022-10-14T23:01:21.768Z,40.94
2022-10-14T23:03:55.469Z,40.79
2022-10-14T23:06:26.197Z,41.21
2022-10-14T23:08:56.615Z,40.42
2022-10-14T23:11:29.911Z,40.47
2022-10-14T23:14:04.398Z,40.79
2022-10-14T23:16:38.158Z,40.67
2022-10-14T23:19:08.779Z,40.99
2022-10-14T23:21:40.459Z,41.32
2022-10-14T23:24:14.742Z,40.84
2022-10-14T23:26:46.615Z,40.89
2022-10-14T23:29:17.065Z,40.98
2022-10-14T23:31:47.095Z,41.21
2022-10-14T23:34:17.553Z,40.97
2022-10-14T23:36:47.429Z,41.26
2022-10-14T23:39:18.222Z,40.60
2022-10-14T23:41:50.086Z,41.29
2022-10-14T23:44:20.001Z,40.75
2022-10-14T23:46:50.823Z,41.11
2022-10-14T23:49:26.024Z,40.83
2022-10-14T23:51:57.571Z,41.19
2022-10-14T23:54:28.075Z,40.89
2022-10-14T23:57:00.483Z,41.34
2022-10-14T23:59:30.896Z,40.96
